Time;durP1;ratioP1;P1;durP2;ratioP2;P2;SDS_P1;SDS_P2;PMS_P1;PMS_P2;Temp;Humidity;BMP_temperature;BMP_pressure;BME280_temperature;BME280_humidity;BME280_pressure;Samples;Min_cycle;Max_cycle;Signal;HPM_P1;HPM_P2
2022/06/30 00:02:55;;;;;;;;;;;;;;;19.22;50.07129;101203.4;;;;-84
2022/06/30 00:06:45;;;;;;;9.5;6.4;;;;;;;;;;;;;-84
2022/06/30 00:07:54;;;;;;;;;;;;;;;19.19;50.17188;101198.2;;;;-85
2022/06/30 00:12:54;;;;;;;;;;;;;;;19.12;50.1748;101192.1;;;;-85
2022/06/30 00:17:55;;;;;;;;;;;;;;;19.08;50.0332;101190.8;;;;-85
2022/06/30 00:22:55;;;;;;;;;;;;;;;19.03;50.19824;101181.2;;;;-84
2022/06/30 00:27:57;;;;;;;;;;;;;;;18.99;50.38672;101179.7;;;;-86
2022/06/30 00:32:54;;;;;;;;;;;;;;;18.93;50.41406;101176.2;;;;-85
2022/06/30 00:36:48;;;;;;;10;6.2;;;;;;;;;;;;;-87
2022/06/30 00:37:56;;;;;;;;;;;;;;;18.88;50.61328;101167.7;;;;-84
2022/06/30 00:42:55;;;;;;;;;;;;;;;18.84;50.50684;101163.1;;;;-86
2022/06/30 00:47:55;;;;;;;;;;;;;;;18.76;50.48535;101154.4;;;;-87
2022/06/30 00:52:55;;;;;;;;;;;;;;;18.73;50.50586;101149.2;;;;-86
2022/06/30 00:57:56;;;;;;;;;;;;;;;18.68;50.54492;101153.5;;;;-87
2022/06/30 01:02:57;;;;;;;;;;;;;;;18.63;50.5498;101144.7;;;;-83
2022/06/30 01:06:51;;;;;;;9.1;5.7;;;;;;;;;;;;;-86
2022/06/30 01:07:56;;;;;;;;;;;;;;;18.62;50.44727;101148.8;;;;-85
2022/06/30 01:12:56;;;;;;;;;;;;;;;18.62;50.31055;101144.8;;;;-85
2022/06/30 01:17:55;;;;;;;;;;;;;;;18.64;50.34766;101144.9;;;;-85
2022/06/30 01:22:55;;;;;;;;;;;;;;;18.69;50.48926;101143.3;;;;-84
2022/06/30 01:27:54;;;;;;;;;;;;;;;18.76;50.84863;101142.6;;;;-85
2022/06/30 01:32:57;;;;;;;;;;;;;;;18.83;51.15332;101143.3;;;;-84
2022/06/30 01:36:52;;;;;;;8.9;5.3;;;;;;;;;;;;;-85
2022/06/30 01:37:55;;;;;;;;;;;;;;;18.89;51.14941;101142.3;;;;-85
2022/06/30 01:42:55;;;;;;;;;;;;;;;18.94;50.9834;101138.2;;;;-84
2022/06/30 01:48:00;;;;;;;;;;;;;;;18.98;50.78418;101139.1;;;;-84
2022/06/30 01:52:56;;;;;;;;;;;;;;;19.01;50.94629;101135.8;;;;-85
2022/06/30 01:57:57;;;;;;;;;;;;;;;19.02;51.5957;101127.8;;;;-85
2022/06/30 02:02:57;;;;;;;;;;;;;;;19.03;51.00586;101125.8;;;;-86
2022/06/30 02:06:55;;;;;;;7.7;5.1;;;;;;;;;;;;;-85
2022/06/30 02:07:54;;;;;;;;;;;;;;;19.04;51.42871;101119.7;;;;-86
2022/06/30 02:12:54;;;;;;;;;;;;;;;19.07;51.26074;101128.6;;;;-86
2022/06/30 02:17:58;;;;;;;;;;;;;;;19.07;51.18164;101128.8;;;;-85
2022/06/30 02:23:01;;;;;;;;;;;;;;;19.08;51.44434;101133.7;;;;-87
2022/06/30 02:27:57;;;;;;;;;;;;;;;19.06;51.52148;101132.9;;;;-85
2022/06/30 02:32:56;;;;;;;;;;;;;;;19.07;51.91016;101139.7;;;;-84
2022/06/30 02:37:04;;;;;;;10.8;5.5;;;;;;;;;;;;;-85
2022/06/30 02:37:54;;;;;;;;;;;;;;;19.09;52.02539;101143.9;;;;-83
2022/06/30 02:42:57;;;;;;;;;;;;;;;19.1;51.52637;101136.2;;;;-84
2022/06/30 02:47:58;;;;;;;;;;;;;;;19.13;51.55176;101133.6;;;;-85
2022/06/30 02:52:55;;;;;;;;;;;;;;;19.13;51.12012;101129.7;;;;-85
2022/06/30 02:57:54;;;;;;;;;;;;;;;19.1;51.18457;101121.6;;;;-83
2022/06/30 03:02:57;;;;;;;;;;;;;;;19.09;51.21777;101110.6;;;;-85
2022/06/30 03:07:01;;;;;;;8.2;5.5;;;;;;;;;;;;;-85
2022/06/30 03:07:58;;;;;;;;;;;;;;;19.08;51.23926;101111.7;;;;-85
2022/06/30 03:12:56;;;;;;;;;;;;;;;19.05;51.40723;101137.3;;;;-86
2022/06/30 03:18:00;;;;;;;;;;;;;;;19.05;52.80664;101132;;;;-85
2022/06/30 03:22:55;;;;;;;;;;;;;;;19.01;53.15332;101126.7;;;;-87
2022/06/30 03:27:55;;;;;;;;;;;;;;;18.96;54.29492;101121.3;;;;-86
2022/06/30 03:32:56;;;;;;;;;;;;;;;18.93;54.56445;101118.3;;;;-85
2022/06/30 03:37:04;;;;;;;10.6;7.2;;;;;;;;;;;;;-85
2022/06/30 03:37:54;;;;;;;;;;;;;;;18.91;53.12891;101140.6;;;;-86
2022/06/30 03:42:54;;;;;;;;;;;;;;;18.89;53.80957;101117.2;;;;-84
2022/06/30 03:47:58;;;;;;;;;;;;;;;18.85;52.85059;101123;;;;-86
2022/06/30 03:52:56;;;;;;;;;;;;;;;18.82;52.64258;101124.1;;;;-84
2022/06/30 03:58:03;;;;;;;;;;;;;;;18.8;52.79883;101117.1;;;;-85
2022/06/30 04:02:55;;;;;;;;;;;;;;;18.76;52.47559;101122.8;;;;-85
2022/06/30 04:07:08;;;;;;;8.7;6.2;;;;;;;;;;;;;-84
2022/06/30 04:07:55;;;;;;;;;;;;;;;18.73;52.84668;101108.6;;;;-87
2022/06/30 04:12:56;;;;;;;;;;;;;;;18.73;52.69922;101113.5;;;;-86
2022/06/30 04:17:57;;;;;;;;;;;;;;;18.75;52.28027;101120.3;;;;-85
2022/06/30 04:22:55;;;;;;;;;;;;;;;18.79;52.50195;101120.9;;;;-83
2022/06/30 04:27:59;;;;;;;;;;;;;;;18.8;51.94629;101108.9;;;;-85
2022/06/30 04:32:56;;;;;;;;;;;;;;;18.82;51.64063;101111;;;;-87
2022/06/30 04:37:10;;;;;;;7.6;5.3;;;;;;;;;;;;;-85
2022/06/30 04:37:54;;;;;;;;;;;;;;;18.82;52.12012;101111.2;;;;-85
2022/06/30 04:43:00;;;;;;;;;;;;;;;18.84;51.66602;101117;;;;-84
2022/06/30 04:47:55;;;;;;;;;;;;;;;18.84;52.72461;101114.9;;;;-85
2022/06/30 04:53:30;;;;;;;;;;;;;;;18.87;51.68164;101120.3;;;;-85
2022/06/30 04:58:01;;;;;;;;;;;;;;;18.88;51.97852;101110;;;;-84
2022/06/30 05:03:27;;;;;;;;;;;;;;;19.14;51.40625;101111;;;;-81
2022/06/30 05:06:34;;;;;;;;;;;;;;;18.93;52.71191;101117.6;;;;-82
2022/06/30 05:11:23;;;;;;;;;;;;;;;18.95;52.71484;101123.9;;;;-82
2022/06/30 05:16:44;;;;;;;;;;;;;;;19;51.79883;101125.4;;;;-84
2022/06/30 05:17:47;;;;;;;;;;;;;;;19.44;52.08984;101130.7;;;;-86
2022/06/30 05:20:47;;;;;;;;;;;;;;;19.08;51.74023;101125.1;;;;-85
2022/06/30 05:30:30;;;;;;;;;;;;;;;19.71;51.52832;101121.1;;;;-86
2022/06/30 05:35:30;;;;;;;;;;;;;;;20.42;51.1543;101134;;;;-85
2022/06/30 05:37:13;;;;;;;11;7.3;;;;;;;;;;;;;-85
2022/06/30 05:40:29;;;;;;;;;;;;;;;21.12;50.11426;101110.2;;;;-84
2022/06/30 05:45:28;;;;;;;;;;;;;;;21.82;49.4248;101113.9;;;;-86
2022/06/30 05:50:30;;;;;;;;;;;;;;;22.46;48.63574;101123.8;;;;-85
2022/06/30 05:55:29;;;;;;;;;;;;;;;23.03;47.58203;101138.6;;;;-86
2022/06/30 06:00:40;;;;;;;;;;;;;;;23.46;47.375;101134.8;;;;-85
2022/06/30 06:05:39;;;;;;;;;;;;;;;23.79;47.69727;101137.3;;;;-86
2022/06/30 06:07:17;;;;;;;15.3;10;;;;;;;;;;;;;-85
2022/06/30 06:10:30;;;;;;;;;;;;;;;24.11;47.65039;101141;;;;-84
2022/06/30 06:15:30;;;;;;;;;;;;;;;24.42;47.43066;101142.8;;;;-87
2022/06/30 06:20:30;;;;;;;;;;;;;;;24.79;46.99609;101137;;;;-85
2022/06/30 06:25:30;;;;;;;;;;;;;;;25.16;46.56055;101147.9;;;;-85
2022/06/30 06:30:29;;;;;;;;;;;;;;;25.44;46.10449;101145.3;;;;-84
2022/06/30 06:35:36;;;;;;;;;;;;;;;25.7;45.59961;101149;;;;-84
2022/06/30 06:37:24;;;;;;;10.1;6.5;;;;;;;;;;;;;-86
2022/06/30 06:40:32;;;;;;;;;;;;;;;25.97;45.0127;101168.3;;;;-86
2022/06/30 06:45:34;;;;;;;;;;;;;;;26.26;44.68262;101174.3;;;;-87
2022/06/30 06:50:29;;;;;;;;;;;;;;;26.56;44.1084;101168.6;;;;-86
2022/06/30 06:55:29;;;;;;;;;;;;;;;26.84;43.66113;101174.7;;;;-85
2022/06/30 07:00:30;;;;;;;;;;;;;;;27.04;43.28516;101166.6;;;;-85
2022/06/30 07:05:29;;;;;;;;;;;;;;;27.12;43.10742;101179.1;;;;-84
2022/06/30 07:07:39;;;;;;;5.5;2.2;;;;;;;;;;;;;-86
2022/06/30 07:10:32;;;;;;;;;;;;;;;27.26;42.89844;101188.8;;;;-85
2022/06/30 07:15:34;;;;;;;;;;;;;;;27.42;42.60059;101196.9;;;;-87
2022/06/30 07:20:30;;;;;;;;;;;;;;;27.58;42.44141;101208.6;;;;-86
2022/06/30 07:25:29;;;;;;;;;;;;;;;27.77;42.17969;101215.4;;;;-84
2022/06/30 07:30:29;;;;;;;;;;;;;;;27.87;41.93359;101214;;;;-86
2022/06/30 07:35:50;;;;;;;;;;;;;;;;;;;;;
2022/06/30 07:37:38;;;;;;;4.3;1.7;;;;;;;;;;;;;-86
2022/06/30 07:40:29;;;;;;;;;;;;;;;28.33;41.41602;101232.4;;;;-87
2022/06/30 07:45:30;;;;;;;;;;;;;;;28.52;40.96777;101236.2;;;;-86
2022/06/30 07:50:29;;;;;;;;;;;;;;;28.67;40.71289;101245.3;;;;-85
2022/06/30 07:55:35;;;;;;;;;;;;;;;28.68;40.43359;101235.4;;;;-84
2022/06/30 08:00:29;;;;;;;;;;;;;;;28.9;40.25488;101255.2;;;;-85
2022/06/30 08:05:53;;;;;;;;;;;;;;;29.06;39.84863;101258.5;;;;-86
2022/06/30 08:07:57;;;;;;;4.5;1.6;;;;;;;;;;;;;-86
2022/06/30 08:10:35;;;;;;;;;;;;;;;29.21;39.65234;101246.5;;;;-86
2022/06/30 08:15:29;;;;;;;;;;;;;;;29.39;39.37598;101254.8;;;;-86
2022/06/30 08:20:35;;;;;;;;;;;;;;;29.53;39.0127;101255.6;;;;-86
2022/06/30 08:25:45;;;;;;;;;;;;;;;29.65;38.73145;101260.5;;;;-86
2022/06/30 08:30:30;;;;;;;;;;;;;;;29.76;38.43652;101256.5;;;;-85
2022/06/30 08:37:38;;;;;;;6.5;1.3;;;;;;;;;;;;;-86
2022/06/30 08:45:32;;;;;;;;;;;;;;;30.2;37.59473;101275.9;;;;-86
2022/06/30 08:50:30;;;;;;;;;;;;;;;30.33;37.30176;101274.4;;;;-85
2022/06/30 08:55:32;;;;;;;;;;;;;;;30.56;36.98047;101280.3;;;;-86
2022/06/30 09:00:43;;;;;;;;;;;;;;;30.77;36.54004;101278.6;;;;-86
2022/06/30 09:05:28;;;;;;;;;;;;;;;30.98;36.11035;101283.7;;;;-80
2022/06/30 09:07:40;;;;;;;4.2;1.1;;;;;;;;;;;;;-78
2022/06/30 09:10:28;;;;;;;;;;;;;;;31.15;35.47852;101274.1;;;;-78
2022/06/30 09:15:28;;;;;;;;;;;;;;;31.32;35.26758;101271.6;;;;-80
2022/06/30 09:20:35;;;;;;;;;;;;;;;31.47;35.1377;101284;;;;-78
2022/06/30 09:25:31;;;;;;;;;;;;;;;31.68;34.61328;101285.6;;;;-78
2022/06/30 09:30:28;;;;;;;;;;;;;;;31.89;34.58203;101280.6;;;;-79
2022/06/30 09:35:28;;;;;;;;;;;;;;;32.09;34.20801;101282.5;;;;-78
2022/06/30 09:37:51;;;;;;;2.8;1;;;;;;;;;;;;;-79
2022/06/30 09:40:32;;;;;;;;;;;;;;;32.34;34.07422;101283.1;;;;-78
2022/06/30 09:45:37;;;;;;;;;;;;;;;32.54;33.77148;101281.1;;;;-78
2022/06/30 09:50:28;;;;;;;;;;;;;;;32.71;33.34766;101286.7;;;;-78
2022/06/30 09:55:38;;;;;;;;;;;;;;;32.9;33.25586;101303.3;;;;-80
2022/06/30 10:00:28;;;;;;;;;;;;;;;33.03;32.875;101311.5;;;;-79
2022/06/30 10:05:28;;;;;;;;;;;;;;;33.21;33.30176;101309.8;;;;-80
2022/06/30 10:07:50;;;;;;;2.8;0.9;;;;;;;;;;;;;-79
2022/06/30 10:10:29;;;;;;;;;;;;;;;33.41;32.91406;101321.1;;;;-78
2022/06/30 10:15:28;;;;;;;;;;;;;;;33.54;32.58105;101324.6;;;;-78
2022/06/30 10:20:33;;;;;;;;;;;;;;;33.64;32.31641;101321.7;;;;-79
2022/06/30 10:25:28;;;;;;;;;;;;;;;33.83;32.14063;101319.1;;;;-80
2022/06/30 10:30:31;;;;;;;;;;;;;;;33.94;31.93555;101318.3;;;;-78
2022/06/30 10:35:32;;;;;;;;;;;;;;;34.04;31.7168;101320.4;;;;-79
2022/06/30 10:38:02;;;;;;;2.4;0.8;;;;;;;;;;;;;-79
2022/06/30 10:40:36;;;;;;;;;;;;;;;34.18;31.66699;101311.3;;;;-79
2022/06/30 10:45:56;;;;;;;;;;;;;;;34.27;31.4375;101304.4;;;;-77
2022/06/30 10:50:37;;;;;;;;;;;;;;;34.41;31.10352;101311.1;;;;-78
2022/06/30 10:55:28;;;;;;;;;;;;;;;34.52;31.28906;101318.8;;;;-78
2022/06/30 11:00:42;;;;;;;;;;;;;;;34.64;31.53418;101326.1;;;;-79
2022/06/30 11:05:28;;;;;;;;;;;;;;;34.77;31.54297;101323.2;;;;-79
2022/06/30 11:08:13;;;;;;;1.6;0.7;;;;;;;;;;;;;-79
2022/06/30 11:10:28;;;;;;;;;;;;;;;34.88;31.46777;101324.2;;;;-79
2022/06/30 11:15:38;;;;;;;;;;;;;;;35.06;31.36133;101320.7;;;;-80
2022/06/30 11:20:28;;;;;;;;;;;;;;;35.17;30.7041;101329;;;;-79
2022/06/30 11:30:31;;;;;;;;;;;;;;;35.3;30.55762;101324.4;;;;-77
2022/06/30 11:35:32;;;;;;;;;;;;;;;35.14;30.54785;101315.4;;;;-77
2022/06/30 11:38:07;;;;;;;2.3;0.9;;;;;;;;;;;;;-80
2022/06/30 11:40:28;;;;;;;;;;;;;;;34.92;30.87695;101316.9;;;;-79
2022/06/30 11:45:29;;;;;;;;;;;;;;;34.82;31.61719;101325.3;;;;-78
2022/06/30 11:50:28;;;;;;;;;;;;;;;34.85;31.61914;101325.4;;;;-80
2022/06/30 11:55:28;;;;;;;;;;;;;;;34.83;31.44043;101322.9;;;;-75
2022/06/30 12:00:31;;;;;;;;;;;;;;;34.86;30.84961;101320.1;;;;-77
2022/06/30 12:05:29;;;;;;;;;;;;;;;34.97;30.72656;101329.7;;;;-77
2022/06/30 12:08:14;;;;;;;3.3;0.7;;;;;;;;;;;;;-76
2022/06/30 12:10:28;;;;;;;;;;;;;;;34.92;30.16504;101319.8;;;;-77
2022/06/30 12:15:28;;;;;;;;;;;;;;;34.65;30.41992;101321.8;;;;-76
2022/06/30 12:20:29;;;;;;;;;;;;;;;34.29;30.96484;101313.5;;;;-75
2022/06/30 12:25:28;;;;;;;;;;;;;;;33.88;31.33984;101294;;;;-77
2022/06/30 12:30:31;;;;;;;;;;;;;;;33.56;31.9082;101295.5;;;;-80
2022/06/30 12:35:29;;;;;;;;;;;;;;;33.3;31.98535;101282.1;;;;-80
2022/06/30 12:38:24;;;;;;;1.9;0.8;;;;;;;;;;;;;-80
2022/06/30 12:40:29;;;;;;;;;;;;;;;33.07;31.99316;101293;;;;-82
2022/06/30 12:45:46;;;;;;;;;;;;;;;32.83;32.24707;101290.6;;;;-82
2022/06/30 12:50:28;;;;;;;;;;;;;;;32.57;32.28809;101286.6;;;;-78
2022/06/30 12:55:28;;;;;;;;;;;;;;;32.35;32.39063;101280.1;;;;-78
2022/06/30 13:00:38;;;;;;;;;;;;;;;32.12;32.61035;101274.3;;;;-78
2022/06/30 13:05:32;;;;;;;;;;;;;;;31.91;32.74707;101264.4;;;;-79
2022/06/30 13:08:23;;;;;;;2.9;0.8;;;;;;;;;;;;;-79
2022/06/30 13:11:04;;;;;;;;;;;;;;;31.78;32.96191;101264.3;;;;-80
2022/06/30 13:15:28;;;;;;;;;;;;;;;31.66;33.0127;101259.7;;;;-79
2022/06/30 13:20:28;;;;;;;;;;;;;;;31.52;33.14355;101262.4;;;;-78
2022/06/30 13:25:29;;;;;;;;;;;;;;;31.43;33.19531;101271.5;;;;-79
2022/06/30 13:30:28;;;;;;;;;;;;;;;31.35;33.37793;101267.8;;;;-80
2022/06/30 13:35:28;;;;;;;;;;;;;;;31.3;33.46875;101263.7;;;;-78
2022/06/30 13:38:28;;;;;;;2.7;0.8;;;;;;;;;;;;;-77
2022/06/30 13:40:28;;;;;;;;;;;;;;;31.34;33.5293;101267;;;;-79
2022/06/30 13:45:28;;;;;;;;;;;;;;;31.47;33.71484;101263.8;;;;-79
2022/06/30 13:50:28;;;;;;;;;;;;;;;31.72;33.33496;101260.9;;;;-78
2022/06/30 13:55:29;;;;;;;;;;;;;;;31.94;33.23242;101260.7;;;;-79
2022/06/30 14:00:28;;;;;;;;;;;;;;;31.99;32.69434;101264.3;;;;-79
2022/06/30 14:05:28;;;;;;;;;;;;;;;31.89;32.74609;101257.3;;;;-80
2022/06/30 14:08:36;;;;;;;2.9;0.9;;;;;;;;;;;;;-78
2022/06/30 14:10:28;;;;;;;;;;;;;;;31.68;32.9668;101260.8;;;;-80
2022/06/30 14:15:28;;;;;;;;;;;;;;;31.4;33.18164;101262.2;;;;-78
2022/06/30 14:20:30;;;;;;;;;;;;;;;31.14;33.45605;101272.6;;;;-79
2022/06/30 14:25:28;;;;;;;;;;;;;;;30.92;33.79297;101279.3;;;;-79
2022/06/30 14:30:28;;;;;;;;;;;;;;;30.76;34.00391;101279;;;;-79
2022/06/30 14:35:28;;;;;;;;;;;;;;;30.68;34.15137;101285.2;;;;-80
2022/06/30 14:38:39;;;;;;;2.8;0.9;;;;;;;;;;;;;-79
2022/06/30 14:40:28;;;;;;;;;;;;;;;30.57;34.16504;101286.1;;;;-79
2022/06/30 14:45:32;;;;;;;;;;;;;;;30.41;34.40039;101297.4;;;;-78
2022/06/30 14:50:28;;;;;;;;;;;;;;;30.25;34.43555;101301.5;;;;-78
2022/06/30 14:55:28;;;;;;;;;;;;;;;30.05;34.52539;101303.1;;;;-80
2022/06/30 15:00:28;;;;;;;;;;;;;;;29.9;34.83008;101292.1;;;;-80
2022/06/30 15:05:31;;;;;;;;;;;;;;;29.89;34.98242;101289.3;;;;-79
2022/06/30 15:08:43;;;;;;;4;1;;;;;;;;;;;;;-80
2022/06/30 15:10:28;;;;;;;;;;;;;;;29.92;34.97168;101284;;;;-79
2022/06/30 15:15:28;;;;;;;;;;;;;;;29.84;35.0127;101272.5;;;;-80
2022/06/30 15:20:28;;;;;;;;;;;;;;;29.69;35.12988;101265;;;;-79
2022/06/30 15:25:28;;;;;;;;;;;;;;;29.6;35.24023;101262;;;;-80
2022/06/30 15:30:28;;;;;;;;;;;;;;;29.58;35.29785;101276;;;;-81
2022/06/30 15:35:28;;;;;;;;;;;;;;;29.44;35.34473;101276.4;;;;-79
2022/06/30 15:38:47;;;;;;;2.4;0.8;;;;;;;;;;;;;-78
2022/06/30 15:40:28;;;;;;;;;;;;;;;29.21;35.54883;101274.8;;;;-80
2022/06/30 15:45:28;;;;;;;;;;;;;;;28.96;35.70508;101265.3;;;;-78
2022/06/30 15:50:28;;;;;;;;;;;;;;;28.77;36.04004;101259.7;;;;-80
2022/06/30 15:55:28;;;;;;;;;;;;;;;28.6;36.16699;101276.9;;;;-78
2022/06/30 16:00:28;;;;;;;;;;;;;;;28.42;36.31641;101288.9;;;;-78
2022/06/30 16:05:28;;;;;;;;;;;;;;;28.18;36.50684;101306.4;;;;-80
2022/06/30 16:08:52;;;;;;;2.2;0.7;;;;;;;;;;;;;-77
2022/06/30 16:10:28;;;;;;;;;;;;;;;27.94;36.79004;101306.8;;;;-79
2022/06/30 16:15:28;;;;;;;;;;;;;;;27.62;36.95117;101289;;;;-79
2022/06/30 16:20:28;;;;;;;;;;;;;;;27.34;37.2998;101287.1;;;;-78
2022/06/30 16:25:31;;;;;;;;;;;;;;;27.01;37.37695;101285.4;;;;-83
2022/06/30 16:30:29;;;;;;;;;;;;;;;26.63;37.64844;101299.7;;;;-88
2022/06/30 16:39:17;;;;;;;4.1;1.2;;;;;;;;;;;;;-86
2022/06/30 16:40:46;;;;;;;;;;;;;;;25.77;37.85449;101300;;;;-84
2022/06/30 16:45:52;;;;;;;;;;;;;;;25.34;38.38672;101312;;;;-85
2022/06/30 16:50:38;;;;;;;;;;;;;;;24.95;38.65527;101296.1;;;;-87
2022/06/30 16:56:01;;;;;;;;;;;;;;;24.92;38.88379;101288.5;;;;-84
2022/06/30 16:57:45;;;;;;;;;;;;;;;25.02;38.73047;101286.7;;;;-87
2022/06/30 17:00:32;;;;;;;;;;;;;;;24.41;39.38281;101311;;;;-88
2022/06/30 17:09:59;;;;;;;;;;;;;;;24.13;40.15527;101290.6;;;;-80
2022/06/30 17:14:40;;;;;;;;;;;;;;;23.51;41.0918;101261.9;;;;-83
2022/06/30 17:19:39;;;;;;;;;;;;;;;23.14;42.15137;101275.4;;;;-82
2022/06/30 17:24:49;;;;;;;;;;;;;;;22.85;42.36523;101317.8;;;;-81
2022/06/30 17:29:41;;;;;;;;;;;;;;;22.55;43.4873;101320;;;;-81
2022/06/30 17:34:40;;;;;;;;;;;;;;;22.25;44.38672;101353.3;;;;-80
2022/06/30 17:39:50;;;;;;;;;;;;;;;22.02;44.92773;101352.3;;;;-81
2022/06/30 17:50:07;;;;;;;;;;;;;;;21.73;46.48145;101393;;;;-80
2022/06/30 17:59:11;;;;;;;;;;;;;;;21.01;47.74512;101405.9;;;;-82
2022/06/30 18:04:05;;;;;;;;;;;;;;;20.79;48.3623;101352.5;;;;-80
2022/06/30 18:27:24;;;;;;;;;;;;;;;20;50.18164;101352.5;;;;-82
2022/06/30 18:32:25;;;;;;;;;;;;;;;19.86;50.50781;101401.4;;;;-84
2022/06/30 18:38:51;;;;;;;;;;;;;;;20;50.27344;101371.1;;;;-83
2022/06/30 18:39:17;;;;;;;1.2;0.6;;;;;;;;;;;;;-83
2022/06/30 18:42:39;;;;;;;;;;;;;;;19.62;50.96094;101389;;;;-83
2022/06/30 18:47:30;;;;;;;;;;;;;;;19.49;51.05859;101362.3;;;;-84
2022/06/30 18:52:30;;;;;;;;;;;;;;;19.36;51.24805;101372.6;;;;-83
2022/06/30 18:57:32;;;;;;;;;;;;;;;19.2;51.53711;101316.1;;;;-83
2022/06/30 19:02:41;;;;;;;;;;;;;;;19.08;51.7627;101317.9;;;;-84
2022/06/30 19:07:29;;;;;;;;;;;;;;;18.97;51.98926;101323.4;;;;-84
2022/06/30 19:09:12;;;;;;;1.3;0.5;;;;;;;;;;;;;-83
2022/06/30 19:12:49;;;;;;;;;;;;;;;18.88;52.17188;101378.6;;;;-83
2022/06/30 19:17:40;;;;;;;;;;;;;;;18.79;52.11523;101388;;;;-83
2022/06/30 19:22:36;;;;;;;;;;;;;;;18.69;52.27441;101386.8;;;;-82
2022/06/30 19:27:35;;;;;;;;;;;;;;;18.63;52.48242;101375.3;;;;-84
2022/06/30 19:32:37;;;;;;;;;;;;;;;;;;;;;
2022/06/30 19:40:28;;;;;;;;;;;;;;;18.75;52.16797;101340.3;;;;-82
2022/06/30 19:43:14;;;;;;;;;;;;;;;18.36;52.54102;101351.4;;;;-83
2022/06/30 19:48:21;;;;;;;;;;;;;;;18.28;52.68066;101355.9;;;;-84
2022/06/30 19:53:16;;;;;;;;;;;;;;;18.21;53.09277;101364.5;;;;-84
2022/06/30 19:58:12;;;;;;;;;;;;;;;18.15;52.95996;101372.4;;;;-84
2022/06/30 20:13:07;;;;;;;;;;;;;;;18.01;53.4082;101415.2;;;;-84
2022/06/30 20:18:04;;;;;;;;;;;;;;;17.98;53.48438;101406.6;;;;-84
2022/06/30 20:23:13;;;;;;;;;;;;;;;17.94;53.54785;101365.5;;;;-85
2022/06/30 20:28:07;;;;;;;;;;;;;;;17.91;53.87207;101350.9;;;;-83
2022/06/30 20:38:20;;;;;;;;;;;;;;;17.83;54.31738;101362.6;;;;-85
2022/06/30 20:52:14;;;;;;;;;;;;;;;17.73;54.20313;101418.1;;;;-82
2022/06/30 20:57:37;;;;;;;;;;;;;;;17.96;53.84375;101386.8;;;;-84
2022/06/30 20:58:54;;;;;;;;;;;;;;;17.93;53.70508;101390.9;;;;-82
2022/06/30 21:19:21;;;;;;;;;;;;;;;;;;;;;
2022/06/30 21:34:01;;;;;;;;;;;;;;;17.79;55.67285;101448.8;;;;-83
2022/06/30 21:37:55;;;;;;;;;;;;;;;17.4;55.92773;101454.6;;;;-83
2022/06/30 21:39:29;;;;;;;2.3;0.6;;;;;;;;;;;;;-85
2022/06/30 21:42:57;;;;;;;;;;;;;;;17.34;55.97754;101458.9;;;;-84
2022/06/30 21:48:03;;;;;;;;;;;;;;;17.33;55.8291;101475.3;;;;-86
2022/06/30 21:52:54;;;;;;;;;;;;;;;17.3;56.27734;101474.9;;;;-86
2022/06/30 21:57:54;;;;;;;;;;;;;;;17.26;56.14844;101487.8;;;;-85
2022/06/30 22:02:55;;;;;;;;;;;;;;;17.23;56.41699;101489.2;;;;-84
2022/06/30 22:07:54;;;;;;;;;;;;;;;17.2;56.15137;101480.6;;;;-86
2022/06/30 22:09:25;;;;;;;1.6;0.6;;;;;;;;;;;;;-83
2022/06/30 22:12:53;;;;;;;;;;;;;;;17.16;56.33984;101479.1;;;;-83
2022/06/30 22:17:54;;;;;;;;;;;;;;;17.13;56.55078;101493.8;;;;-84
2022/06/30 22:22:54;;;;;;;;;;;;;;;17.09;57.14453;101501.4;;;;-83
2022/06/30 22:27:57;;;;;;;;;;;;;;;17.05;57.06055;101497.3;;;;-82
2022/06/30 22:32:56;;;;;;;;;;;;;;;17.02;56.72852;101501.5;;;;-85
2022/06/30 22:37:53;;;;;;;;;;;;;;;17.01;57.41699;101490.3;;;;-83
2022/06/30 22:39:29;;;;;;;1.7;0.7;;;;;;;;;;;;;-83
2022/06/30 22:43:07;;;;;;;;;;;;;;;16.99;57.10938;101481.7;;;;-82
2022/06/30 22:47:53;;;;;;;;;;;;;;;16.95;57.27344;101487.2;;;;-82
2022/06/30 22:52:53;;;;;;;;;;;;;;;16.94;57.06836;101480.4;;;;-82
2022/06/30 22:57:53;;;;;;;;;;;;;;;16.93;57.70117;101480.4;;;;-82
2022/06/30 23:02:54;;;;;;;;;;;;;;;16.92;57.7666;101507;;;;-83
2022/06/30 23:07:54;;;;;;;;;;;;;;;16.9;58.0127;101503.8;;;;-83
2022/06/30 23:09:28;;;;;;;2.7;0.8;;;;;;;;;;;;;-82
2022/06/30 23:12:54;;;;;;;;;;;;;;;16.88;58.34961;101530.6;;;;-82
2022/06/30 23:17:53;;;;;;;;;;;;;;;16.86;58.99121;101507.9;;;;-83
2022/06/30 23:22:53;;;;;;;;;;;;;;;16.84;59.08887;101493;;;;-83
2022/06/30 23:27:53;;;;;;;;;;;;;;;16.8;59.11816;101506.1;;;;-81
2022/06/30 23:32:54;;;;;;;;;;;;;;;16.75;58.83008;101495.1;;;;-83
2022/06/30 23:38:03;;;;;;;;;;;;;;;16.74;59.03027;101501.7;;;;-81
2022/06/30 23:39:30;;;;;;;2.3;0.7;;;;;;;;;;;;;-82
2022/06/30 23:42:54;;;;;;;;;;;;;;;16.7;59.13867;101495.5;;;;-83
2022/06/30 23:47:53;;;;;;;;;;;;;;;16.65;59.28906;101478.6;;;;-82
2022/06/30 23:52:53;;;;;;;;;;;;;;;16.64;58.88281;101471.4;;;;-81
2022/06/30 23:57:55;;;;;;;;;;;;;;;16.61;58.77734;101453.6;;;;-81
